createdAt,value
2018-07-27T18:14:37.297Z,95246.89
2018-07-27T18:17:06.388Z,95253.34
2018-07-27T18:19:35.507Z,95251.53
2018-07-27T18:22:04.684Z,95260.66
2018-07-27T18:24:33.922Z,95253.28
2018-07-27T18:27:03.175Z,95256.81
2018-07-27T18:29:32.283Z,95261.45
2018-07-27T18:32:01.879Z,95256.16
2018-07-27T18:34:31.187Z,95257.95
2018-07-27T18:37:00.345Z,95252.98
2018-07-27T18:39:29.490Z,95255.61
2018-07-27T18:41:58.609Z,95253.28
2018-07-27T18:44:27.869Z,95254.69
2018-07-27T18:46:57.021Z,95253.52
2018-07-27T18:49:26.169Z,95262.19
2018-07-27T18:51:55.533Z,95260.79
2018-07-27T18:54:24.761Z,95257.83
2018-07-27T18:56:54.042Z,95251.44
2018-07-27T18:59:23.404Z,95264.48
2018-07-27T19:01:52.676Z,95259.70
2018-07-27T19:04:22.086Z,95255.30
2018-07-27T19:06:51.292Z,95259.52
2018-07-27T19:09:20.490Z,95255.08
2018-07-27T19:11:49.682Z,95252.28
2018-07-27T19:14:18.773Z,95255.08
2018-07-27T19:16:48.014Z,95248.09
2018-07-27T19:19:17.248Z,95250.08
2018-07-27T19:21:46.402Z,95255.66
2018-07-27T19:24:15.545Z,95257.84
2018-07-27T19:26:44.671Z,95256.25
2018-07-27T19:29:13.929Z,95261.20
2018-07-27T19:31:43.030Z,95262.43
2018-07-27T19:34:12.168Z,95266.58
2018-07-27T19:36:41.383Z,95264.34
2018-07-27T19:39:12.064Z,95272.92
2018-07-27T19:41:41.920Z,95267.89
2018-07-27T19:44:11.244Z,95268.08
2018-07-27T19:46:40.492Z,95264.81
2018-07-27T19:49:09.828Z,95266.61
2018-07-27T19:51:38.866Z,95266.59
2018-07-27T19:54:07.977Z,95272.33
2018-07-27T19:56:37.050Z,95270.02
2018-07-27T19:59:06.197Z,95269.64
2018-07-27T20:01:35.453Z,95276.78
2018-07-27T20:04:04.710Z,95268.17
2018-07-27T20:06:33.859Z,95268.55
2018-07-27T20:09:02.999Z,95267.05
2018-07-27T20:11:32.105Z,95264.86
2018-07-27T20:14:01.265Z,95265.20
2018-07-27T20:16:30.333Z,95265.20
2018-07-27T20:18:59.548Z,95262.92
2018-07-27T20:21:28.749Z,95267.81
2018-07-27T20:23:57.818Z,95264.53
2018-07-27T20:26:26.952Z,95264.64
2018-07-27T20:28:56.114Z,95257.27
2018-07-27T20:31:25.192Z,95257.02
2018-07-27T20:33:54.328Z,95258.11
2018-07-27T20:36:23.727Z,95251.11
2018-07-27T20:38:52.865Z,95259.58
2018-07-27T20:41:21.964Z,95258.98
2018-07-27T20:43:51.297Z,95256.36
2018-07-27T20:46:20.405Z,95261.16
2018-07-27T20:48:49.616Z,95250.06
2018-07-27T20:51:18.783Z,95249.47
2018-07-27T20:53:48.136Z,95257.56
2018-07-27T20:56:17.265Z,95256.22
2018-07-27T20:58:46.442Z,95261.08
2018-07-27T21:01:15.593Z,95259.69
2018-07-27T21:03:44.714Z,95254.70
2018-07-27T21:06:13.981Z,95257.05
2018-07-27T21:08:43.082Z,95260.57
2018-07-27T21:11:12.416Z,95250.23
2018-07-27T21:13:41.596Z,95247.29
2018-07-27T21:16:10.844Z,95252.17
2018-07-27T21:18:40.001Z,95253.23
2018-07-27T21:21:09.190Z,95247.83
2018-07-27T21:23:38.248Z,95252.78
2018-07-27T21:26:07.474Z,95251.78
2018-07-27T21:28:36.574Z,95248.95
2018-07-27T21:31:05.698Z,95241.42
2018-07-27T21:33:34.942Z,95239.23
2018-07-27T21:36:04.236Z,95237.20
2018-07-27T21:38:33.340Z,95235.59
2018-07-27T21:41:02.526Z,95238.70
2018-07-27T21:43:31.665Z,95230.67
2018-07-27T21:46:00.758Z,95231.85
2018-07-27T21:48:29.873Z,95235.45
2018-07-27T21:50:59.049Z,95228.80
2018-07-27T21:53:28.252Z,95221.23
2018-07-27T21:55:57.415Z,95232.09
2018-07-27T21:58:26.528Z,95228.40
2018-07-27T22:00:55.722Z,95223.14
2018-07-27T22:03:24.833Z,95227.31
2018-07-27T22:05:53.892Z,95218.27
2018-07-27T22:08:23.020Z,95225.83
2018-07-27T22:10:52.170Z,95236.89
2018-07-27T22:13:21.336Z,95228.27
2018-07-27T22:15:50.417Z,95225.80
2018-07-27T22:18:19.653Z,95217.48
2018-07-27T22:20:48.739Z,95229.02
2018-07-27T22:23:17.986Z,95221.86
2018-07-27T22:25:47.118Z,95222.48
2018-07-27T22:28:16.412Z,95219.30
2018-07-27T22:30:45.576Z,95219.42
2018-07-27T22:33:14.714Z,95215.53
2018-07-27T22:35:43.892Z,95225.68
2018-07-27T22:38:12.986Z,95218.53
2018-07-27T22:40:42.191Z,95218.31
2018-07-27T22:43:11.279Z,95210.50
2018-07-27T22:45:40.381Z,95213.22
2018-07-27T22:48:09.764Z,95210.72
2018-07-27T22:50:38.883Z,95209.75
2018-07-27T22:53:08.035Z,95211.67
2018-07-27T22:55:37.165Z,95216.47
2018-07-27T22:58:06.425Z,95220.23
2018-07-27T23:00:35.865Z,95219.09
2018-07-27T23:03:06.658Z,95218.48
2018-07-27T23:05:35.774Z,95214.67
2018-07-27T23:08:05.478Z,95215.33
2018-07-27T23:10:34.621Z,95214.51
2018-07-27T23:13:03.801Z,95212.48
2018-07-27T23:15:33.438Z,95216.69
2018-07-27T23:18:02.793Z,95215.30
2018-07-27T23:20:32.890Z,95211.00
2018-07-27T23:23:02.021Z,95210.38
2018-07-27T23:25:31.806Z,95209.92
2018-07-27T23:28:01.059Z,95210.67
2018-07-27T23:30:30.986Z,95208.83
2018-07-27T23:33:00.582Z,95210.84
2018-07-27T23:35:29.912Z,95209.81
2018-07-27T23:37:59.030Z,95210.49
2018-07-27T23:40:28.664Z,95211.59
2018-07-27T23:42:58.997Z,95202.52
2018-07-27T23:45:29.056Z,95203.39
2018-07-27T23:47:58.536Z,95200.94
2018-07-27T23:50:27.964Z,95196.31
2018-07-27T23:52:57.328Z,95200.35
2018-07-27T23:55:27.082Z,95194.31
2018-07-27T23:57:56.798Z,95201.06
